createdAt,value
2023-04-24T00:00:35.124Z,5.73
2023-04-24T00:03:02.852Z,5.17
2023-04-24T00:05:30.666Z,3.73
2023-04-24T00:07:57.765Z,5.83
2023-04-24T00:10:24.926Z,5.80
2023-04-24T00:12:52.085Z,4.13
2023-04-24T00:15:19.192Z,4.77
2023-04-24T00:17:47.315Z,3.00
2023-04-24T00:20:15.832Z,4.17
2023-04-24T00:22:43.026Z,3.50
2023-04-24T00:25:10.430Z,7.17
2023-04-24T00:27:38.372Z,5.40
2023-04-24T00:30:06.087Z,3.97
2023-04-24T00:32:33.289Z,6.53
2023-04-24T00:35:00.494Z,4.17
2023-04-24T00:37:27.646Z,7.80
2023-04-24T00:39:54.753Z,4.07
2023-04-24T00:42:22.153Z,5.03
2023-04-24T00:44:49.282Z,5.50
2023-04-24T00:47:16.648Z,4.77
2023-04-24T00:49:43.987Z,3.17
2023-04-24T00:52:11.800Z,5.33
2023-04-24T00:54:38.921Z,3.73
2023-04-24T00:57:06.280Z,3.53
2023-04-24T00:59:33.622Z,7.50
2023-04-24T01:02:00.818Z,5.50
2023-04-24T01:04:28.460Z,4.90
2023-04-24T01:06:56.972Z,4.03
2023-04-24T01:09:25.333Z,3.67
2023-04-24T01:11:52.513Z,6.07
2023-04-24T01:14:19.645Z,3.43
2023-04-24T01:16:46.770Z,6.83
2023-04-24T01:19:15.556Z,3.60
2023-04-24T01:21:44.319Z,3.13
2023-04-24T01:24:11.651Z,5.03
2023-04-24T01:26:38.783Z,3.23
2023-04-24T01:29:05.970Z,5.00
2023-04-24T01:31:34.168Z,3.17
2023-04-24T01:34:01.380Z,6.30
2023-04-24T01:36:28.912Z,2.47
2023-04-24T01:38:56.108Z,6.03
2023-04-24T01:41:23.389Z,3.43
2023-04-24T01:43:51.148Z,5.57
2023-04-24T01:46:18.432Z,4.03
2023-04-24T01:48:46.731Z,2.97
2023-04-24T01:51:13.856Z,3.67
2023-04-24T01:53:41.059Z,5.50
2023-04-24T01:56:08.373Z,3.57
2023-04-24T01:58:35.642Z,3.13
2023-04-24T02:01:02.840Z,5.03
2023-04-24T02:03:30.279Z,4.27
2023-04-24T02:05:57.523Z,5.67
2023-04-24T02:08:25.000Z,5.20
2023-04-24T02:10:52.191Z,6.17
2023-04-24T02:13:19.317Z,4.37
2023-04-24T02:15:46.417Z,4.27
2023-04-24T02:18:13.877Z,3.87
2023-04-24T02:20:41.285Z,6.23
2023-04-24T02:23:08.426Z,2.10
2023-04-24T02:25:35.763Z,4.40
2023-04-24T02:28:03.923Z,3.73
2023-04-24T02:30:31.551Z,4.30
2023-04-24T02:32:58.653Z,2.40
2023-04-24T02:35:25.779Z,4.87
2023-04-24T02:37:52.967Z,3.50
2023-04-24T02:40:20.131Z,8.63
2023-04-24T02:42:47.308Z,2.77
2023-04-24T02:45:14.452Z,5.57
2023-04-24T02:47:41.649Z,5.00
2023-04-24T02:50:09.405Z,3.67
2023-04-24T02:52:36.594Z,5.07
2023-04-24T02:55:03.769Z,3.43
2023-04-24T02:57:30.916Z,4.83
2023-04-24T02:59:58.059Z,6.30
2023-04-24T03:02:25.480Z,5.70
2023-04-24T03:04:52.677Z,4.97
2023-04-24T03:07:21.776Z,7.27
2023-04-24T03:09:49.101Z,6.50
2023-04-24T03:12:18.083Z,4.47
2023-04-24T03:14:45.513Z,4.60
2023-04-24T03:17:12.692Z,2.73
2023-04-24T03:19:40.290Z,2.33
2023-04-24T03:22:07.506Z,3.47
2023-04-24T03:24:34.615Z,6.67
2023-04-24T03:27:01.818Z,4.97
2023-04-24T03:29:30.372Z,5.00
2023-04-24T03:31:57.670Z,5.60
2023-04-24T03:34:25.086Z,5.30
2023-04-24T03:36:53.531Z,5.77
2023-04-24T03:39:20.805Z,5.77
2023-04-24T03:41:47.939Z,7.30
2023-04-24T03:44:15.578Z,9.40
2023-04-24T03:46:42.728Z,5.93
2023-04-24T03:49:09.929Z,4.13
2023-04-24T03:51:37.796Z,3.57
2023-04-24T03:54:05.032Z,7.20
2023-04-24T03:56:32.116Z,6.10
2023-04-24T03:58:59.222Z,4.30
2023-04-24T04:01:26.312Z,4.83
2023-04-24T04:03:53.689Z,5.57
2023-04-24T04:06:22.455Z,5.43
2023-04-24T04:08:49.655Z,5.10
2023-04-24T04:11:16.773Z,5.67
2023-04-24T04:13:44.014Z,4.37
2023-04-24T04:16:11.173Z,4.07
2023-04-24T04:18:38.716Z,8.63
2023-04-24T04:21:05.909Z,5.90
2023-04-24T04:23:33.060Z,2.83
2023-04-24T04:26:00.686Z,4.50
2023-04-24T04:28:27.828Z,5.43
2023-04-24T04:30:55.949Z,5.40
2023-04-24T04:33:23.354Z,4.47
2023-04-24T04:35:50.639Z,3.37
2023-04-24T04:38:17.832Z,5.00
2023-04-24T04:40:45.065Z,5.70
2023-04-24T04:43:12.188Z,6.77
2023-04-24T04:45:39.895Z,7.03
2023-04-24T04:48:08.764Z,5.30
2023-04-24T04:50:36.148Z,5.80
2023-04-24T04:53:03.270Z,4.10
2023-04-24T04:55:30.472Z,6.97
2023-04-24T04:57:58.342Z,5.63
2023-04-24T05:00:26.373Z,5.30
2023-04-24T05:02:53.659Z,6.47
2023-04-24T05:05:20.929Z,6.37
2023-04-24T05:07:48.026Z,5.00
2023-04-24T05:10:15.206Z,4.77
2023-04-24T05:12:44.245Z,6.23
2023-04-24T05:15:12.891Z,8.33
2023-04-24T05:17:41.090Z,4.87
2023-04-24T05:20:08.999Z,6.03
2023-04-24T05:22:36.864Z,4.10
2023-04-24T05:25:04.101Z,5.30
2023-04-24T05:27:31.258Z,6.60
2023-04-24T05:29:58.344Z,6.90
2023-04-24T05:32:25.617Z,2.30
2023-04-24T05:34:52.765Z,5.57
2023-04-24T05:37:19.916Z,4.93
2023-04-24T05:39:47.038Z,4.80
2023-04-24T05:42:14.110Z,4.63
2023-04-24T05:44:41.198Z,4.63
2023-04-24T05:47:08.323Z,4.13
2023-04-24T05:49:35.487Z,4.23
2023-04-24T05:52:04.087Z,3.77
2023-04-24T05:54:31.417Z,3.93
2023-04-24T05:56:58.569Z,5.27
2023-04-24T05:59:25.771Z,3.97
2023-04-24T06:01:52.927Z,3.60
2023-04-24T06:04:20.251Z,3.83
2023-04-24T06:06:51.717Z,4.30
2023-04-24T06:09:19.045Z,3.60
2023-04-24T06:11:46.719Z,6.37
2023-04-24T06:14:13.826Z,4.23
2023-04-24T06:16:42.113Z,4.97
2023-04-24T06:19:09.255Z,5.30
2023-04-24T06:21:36.412Z,5.23
2023-04-24T06:24:04.716Z,2.63
2023-04-24T06:26:32.279Z,2.60
2023-04-24T06:29:00.525Z,3.53
2023-04-24T06:31:27.790Z,2.37
2023-04-24T06:33:55.212Z,3.70
2023-04-24T06:36:22.306Z,5.57
2023-04-24T06:38:49.427Z,4.15
2023-04-24T06:41:16.690Z,4.85
2023-04-24T06:43:43.829Z,3.22
2023-04-24T06:46:11.334Z,4.40
2023-04-24T06:48:38.545Z,2.25
2023-04-24T06:51:05.660Z,3.78
2023-04-24T06:53:33.026Z,4.82
2023-04-24T06:56:00.208Z,4.78
2023-04-24T06:58:27.339Z,3.58
2023-04-24T07:03:23.595Z,3.38
2023-04-24T07:05:50.849Z,4.30
2023-04-24T07:08:18.624Z,5.40
2023-04-24T07:10:46.285Z,4.10
2023-04-24T07:13:13.427Z,4.90
2023-04-24T07:15:41.949Z,3.63
2023-04-24T07:18:09.580Z,4.22
2023-04-24T07:20:36.742Z,5.10
2023-04-24T07:23:04.101Z,3.88
2023-04-24T07:25:32.329Z,5.28
2023-04-24T07:27:59.530Z,3.42
2023-04-24T07:30:26.878Z,5.78
2023-04-24T07:32:53.993Z,5.53
2023-04-24T07:35:21.610Z,5.50
2023-04-24T07:37:48.844Z,6.40
2023-04-24T07:40:16.288Z,4.95
2023-04-24T07:42:43.382Z,5.67
2023-04-24T07:45:10.579Z,5.23
2023-04-24T07:47:38.920Z,6.90
2023-04-24T07:50:06.813Z,5.80
2023-04-24T07:52:33.990Z,5.97
2023-04-24T07:55:01.470Z,6.23
2023-04-24T07:57:28.577Z,5.27
2023-04-24T07:59:56.269Z,5.77
2023-04-24T08:02:27.518Z,6.70
2023-04-24T08:04:55.568Z,5.50
2023-04-24T08:07:22.909Z,8.37
2023-04-24T08:09:50.056Z,6.67
2023-04-24T08:12:17.278Z,6.10
2023-04-24T08:14:44.552Z,6.20
2023-04-24T08:17:11.974Z,6.43
2023-04-24T08:19:39.152Z,7.37
2023-04-24T08:22:06.273Z,6.40
2023-04-24T08:24:33.372Z,7.50
2023-04-24T08:27:02.259Z,6.50
2023-04-24T08:29:29.464Z,5.70
2023-04-24T08:31:56.706Z,9.70
2023-04-24T08:34:24.023Z,7.57
2023-04-24T08:36:51.151Z,7.43
2023-04-24T08:39:18.871Z,6.20
2023-04-24T08:41:46.672Z,8.17
2023-04-24T08:44:16.687Z,7.17
2023-04-24T08:46:48.589Z,7.13
2023-04-24T08:49:19.213Z,6.83
2023-04-24T08:51:48.557Z,6.87
2023-04-24T08:54:15.945Z,3.50
2023-04-24T08:56:45.754Z,4.13
2023-04-24T08:59:13.571Z,4.97
2023-04-24T09:01:41.952Z,4.10
2023-04-24T09:04:13.998Z,2.70
2023-04-24T09:06:41.471Z,4.87
2023-04-24T09:09:09.283Z,6.03
2023-04-24T09:11:36.397Z,6.20
2023-04-24T09:14:03.560Z,5.60
2023-04-24T09:16:30.924Z,3.40
2023-04-24T09:18:58.165Z,4.90
2023-04-24T09:21:25.517Z,3.45
2023-04-24T09:24:03.524Z,3.20
2023-04-24T09:26:34.478Z,2.58
2023-04-24T09:29:01.865Z,2.78
2023-04-24T09:31:29.834Z,3.72
2023-04-24T09:33:59.649Z,2.97
2023-04-24T09:36:38.088Z,2.60
2023-04-24T09:39:06.622Z,3.08
2023-04-24T09:41:34.129Z,4.03
2023-04-24T09:44:14.641Z,3.92
2023-04-24T09:46:42.713Z,5.13
2023-04-24T09:49:11.962Z,4.63
2023-04-24T09:51:39.515Z,3.90
2023-04-24T09:54:12.582Z,3.77
2023-04-24T09:56:43.665Z,3.37
2023-04-24T09:59:10.919Z,4.53
2023-04-24T10:01:39.425Z,4.53
2023-04-24T10:04:06.614Z,6.10
2023-04-24T10:06:36.951Z,5.33
2023-04-24T10:09:04.698Z,8.33
2023-04-24T10:11:32.042Z,4.90
2023-04-24T10:13:59.395Z,5.10
2023-04-24T10:16:28.161Z,5.63
2023-04-24T10:18:56.132Z,5.80
2023-04-24T10:21:24.296Z,4.32
2023-04-24T10:23:52.401Z,4.88
2023-04-24T10:26:20.328Z,5.80
2023-04-24T10:28:47.780Z,5.63
2023-04-24T10:31:15.493Z,4.63
2023-04-24T10:33:43.781Z,5.47
2023-04-24T10:36:12.192Z,4.73
2023-04-24T10:38:41.902Z,4.97
2023-04-24T10:41:17.757Z,7.07
2023-04-24T10:43:45.033Z,5.07
2023-04-24T10:46:12.318Z,4.20
2023-04-24T10:48:44.024Z,8.17
2023-04-24T10:51:14.082Z,5.57
2023-04-24T10:53:41.189Z,5.07
2023-04-24T10:56:10.666Z,7.43
2023-04-24T10:58:53.145Z,6.37
2023-04-24T11:01:30.820Z,5.70
2023-04-24T11:03:59.279Z,6.30
2023-04-24T11:06:33.795Z,5.43
2023-04-24T11:09:08.336Z,4.67
2023-04-24T11:11:36.415Z,6.00
2023-04-24T11:14:05.326Z,5.37
2023-04-24T11:16:34.707Z,5.20
2023-04-24T11:19:20.112Z,6.63
2023-04-24T11:21:48.844Z,7.27
2023-04-24T11:24:27.942Z,5.03
2023-04-24T11:27:07.033Z,6.37
2023-04-24T11:29:51.344Z,4.90
2023-04-24T11:32:19.730Z,5.67
2023-04-24T11:34:50.908Z,5.97
2023-04-24T11:37:18.469Z,5.33
2023-04-24T11:39:45.584Z,4.27
2023-04-24T11:42:15.712Z,4.20
2023-04-24T11:44:44.129Z,4.40
2023-04-24T11:47:11.284Z,3.93
2023-04-24T11:49:38.688Z,4.07
2023-04-24T11:52:06.140Z,3.73
2023-04-24T11:54:33.324Z,3.33
2023-04-24T11:57:00.816Z,4.80
2023-04-24T11:59:28.282Z,4.67
2023-04-24T12:01:55.469Z,3.40
2023-04-24T12:04:22.902Z,4.40
2023-04-24T12:07:09.629Z,4.17
2023-04-24T12:09:44.033Z,4.20
2023-04-24T12:12:13.302Z,3.47
2023-04-24T12:14:44.320Z,5.07
2023-04-24T12:17:11.392Z,4.25
2023-04-24T12:19:38.525Z,7.47
2023-04-24T12:22:07.264Z,4.30
2023-04-24T12:24:34.390Z,3.50
2023-04-24T12:27:02.529Z,3.23
2023-04-24T12:29:29.806Z,4.72
2023-04-24T12:31:56.907Z,3.67
2023-04-24T12:34:24.752Z,3.22
2023-04-24T12:36:52.670Z,3.75
2023-04-24T12:39:20.661Z,3.73
2023-04-24T12:42:02.162Z,3.30
2023-04-24T12:44:33.150Z,4.23
2023-04-24T12:47:00.467Z,9.13
2023-04-24T12:49:27.728Z,5.73
2023-04-24T12:51:54.994Z,3.60
2023-04-24T12:54:22.186Z,4.00
2023-04-24T12:56:49.442Z,4.00
2023-04-24T12:59:16.573Z,3.93
2023-04-24T13:01:43.760Z,3.57
2023-04-24T13:04:11.308Z,4.20
2023-04-24T13:06:38.602Z,4.83
2023-04-24T13:09:05.801Z,4.40
2023-04-24T13:11:33.003Z,3.00
2023-04-24T13:14:00.114Z,5.03
2023-04-24T13:16:27.296Z,4.80
2023-04-24T13:18:54.465Z,5.47
2023-04-24T13:21:21.569Z,4.77
2023-04-24T13:23:48.807Z,4.73
2023-04-24T13:26:15.918Z,5.53
2023-04-24T13:28:43.058Z,5.47
2023-04-24T13:31:10.131Z,4.57
2023-04-24T13:33:37.340Z,8.07
2023-04-24T13:36:04.597Z,4.57
2023-04-24T13:38:31.770Z,5.83
2023-04-24T13:40:58.908Z,5.37
2023-04-24T13:43:26.072Z,4.53
2023-04-24T13:45:53.237Z,5.10
2023-04-24T13:48:20.514Z,7.53
2023-04-24T13:50:49.338Z,5.80
2023-04-24T13:53:16.520Z,4.97
2023-04-24T13:55:43.716Z,7.83
2023-04-24T13:58:11.541Z,5.27
2023-04-24T14:00:38.736Z,4.53
2023-04-24T14:03:06.110Z,3.90
2023-04-24T14:05:33.699Z,4.63
2023-04-24T14:08:00.942Z,5.10
2023-04-24T14:10:28.143Z,5.33
2023-04-24T14:12:55.881Z,5.57
2023-04-24T14:15:22.998Z,6.07
2023-04-24T14:17:51.016Z,9.90
2023-04-24T14:20:18.183Z,5.33
2023-04-24T14:22:45.282Z,7.53
2023-04-24T14:25:12.455Z,4.57
2023-04-24T14:27:41.002Z,6.03
2023-04-24T14:30:09.645Z,6.87
2023-04-24T14:32:37.117Z,6.07
2023-04-24T14:35:04.325Z,6.20
2023-04-24T14:37:31.589Z,7.37
2023-04-24T14:40:14.817Z,9.90
2023-04-24T14:42:46.550Z,7.27
2023-04-24T14:45:13.702Z,10.03
2023-04-24T14:47:40.872Z,7.63
2023-04-24T14:50:09.259Z,4.33
2023-04-24T14:52:37.021Z,3.57
2023-04-24T14:55:04.250Z,3.20
2023-04-24T14:57:31.422Z,4.63
2023-04-24T14:59:58.739Z,3.43
2023-04-24T15:02:25.988Z,4.70
2023-04-24T15:04:54.141Z,4.15
2023-04-24T15:07:21.586Z,5.38
2023-04-24T15:09:49.535Z,5.90
2023-04-24T15:12:16.652Z,7.90
2023-04-24T15:14:43.747Z,6.97
2023-04-24T15:17:10.825Z,8.02
2023-04-24T15:19:37.970Z,7.03
2023-04-24T15:22:05.111Z,8.40
2023-04-24T15:24:32.249Z,7.87
2023-04-24T15:27:00.944Z,10.00
2023-04-24T15:29:28.352Z,8.47
2023-04-24T15:31:55.556Z,8.57
2023-04-24T15:34:22.793Z,8.87
2023-04-24T15:36:50.179Z,7.57
2023-04-24T15:39:17.330Z,12.00
2023-04-24T15:41:44.490Z,7.70
2023-04-24T15:44:11.715Z,9.60
2023-04-24T15:46:38.849Z,6.30
2023-04-24T15:49:06.036Z,8.03
2023-04-24T15:51:33.128Z,7.97
2023-04-24T15:54:00.480Z,8.90
2023-04-24T15:56:29.592Z,6.67
2023-04-24T15:58:58.464Z,7.40
2023-04-24T16:01:25.668Z,8.53
2023-04-24T16:03:53.020Z,7.90
2023-04-24T16:06:20.337Z,8.57
2023-04-24T16:08:47.982Z,7.40
2023-04-24T16:11:15.339Z,8.33
2023-04-24T16:13:42.440Z,6.77
2023-04-24T16:16:09.622Z,10.20
2023-04-24T16:18:36.767Z,10.70
2023-04-24T16:21:05.430Z,8.37
2023-04-24T16:23:32.734Z,8.70
2023-04-24T16:25:59.920Z,8.77
2023-04-24T16:28:27.801Z,9.77
2023-04-24T16:30:55.107Z,10.83
2023-04-24T16:33:22.419Z,10.60
2023-04-24T16:35:49.537Z,7.17
2023-04-24T16:38:16.902Z,7.53
2023-04-24T16:40:44.056Z,11.67
2023-04-24T16:43:11.348Z,10.87
2023-04-24T16:45:38.627Z,13.13
2023-04-24T16:48:05.969Z,8.67
2023-04-24T16:50:33.159Z,8.87
2023-04-24T16:53:00.419Z,11.00
2023-04-24T16:55:27.602Z,11.20
2023-04-24T16:57:54.788Z,9.03
2023-04-24T17:00:22.032Z,8.23
2023-04-24T17:02:50.450Z,9.53
2023-04-24T17:05:19.335Z,9.43
2023-04-24T17:07:46.545Z,8.67
2023-04-24T17:10:13.693Z,7.47
2023-04-24T17:12:40.897Z,8.03
2023-04-24T17:15:08.146Z,7.23
2023-04-24T17:17:35.296Z,9.53
2023-04-24T17:20:11.516Z,7.93
2023-04-24T17:22:48.204Z,8.73
2023-04-24T17:25:15.553Z,6.53
2023-04-24T17:27:42.695Z,8.83
2023-04-24T17:30:10.075Z,9.23
2023-04-24T17:32:37.231Z,8.50
2023-04-24T17:35:04.479Z,9.13
2023-04-24T17:37:31.688Z,8.80
2023-04-24T17:39:58.902Z,7.40
2023-04-24T17:42:25.993Z,8.03
2023-04-24T17:44:53.101Z,8.27
2023-04-24T17:47:22.360Z,10.13
2023-04-24T17:49:49.473Z,8.77
2023-04-24T17:52:17.756Z,10.40
2023-04-24T17:54:45.038Z,7.63
2023-04-24T17:57:12.183Z,6.83
2023-04-24T17:59:39.267Z,8.63
2023-04-24T18:02:06.367Z,8.73
2023-04-24T18:04:33.552Z,11.47
2023-04-24T18:07:00.723Z,10.67
2023-04-24T18:09:27.798Z,7.57
2023-04-24T18:11:57.132Z,9.00
2023-04-24T18:14:25.807Z,7.67
2023-04-24T18:16:52.957Z,7.30
2023-04-24T18:19:20.061Z,7.70
2023-04-24T18:21:47.159Z,7.23
2023-04-24T18:24:14.261Z,8.73
2023-04-24T18:26:41.398Z,7.63
2023-04-24T18:29:08.529Z,8.67
2023-04-24T18:31:35.793Z,9.93
2023-04-24T18:34:02.999Z,10.17
2023-04-24T18:36:30.097Z,8.77
2023-04-24T18:38:57.244Z,10.63
2023-04-24T18:41:24.375Z,8.33
2023-04-24T18:43:52.007Z,10.93
2023-04-24T18:46:19.170Z,11.10
2023-04-24T18:48:46.487Z,8.67
2023-04-24T18:51:13.783Z,8.93
2023-04-24T18:53:41.099Z,9.13
2023-04-24T18:56:08.375Z,8.90
2023-04-24T18:58:35.477Z,9.80
2023-04-24T19:01:02.862Z,11.53
2023-04-24T19:03:32.449Z,8.57
2023-04-24T19:05:59.611Z,10.53
2023-04-24T19:08:26.708Z,11.00
2023-04-24T19:10:53.818Z,11.50
2023-04-24T19:13:20.911Z,9.93
2023-04-24T19:15:47.992Z,10.93
2023-04-24T19:18:17.137Z,9.53
2023-04-24T19:20:44.478Z,9.87
2023-04-24T19:23:11.732Z,8.73
2023-04-24T19:25:38.862Z,9.57
2023-04-24T19:28:06.872Z,13.43
2023-04-24T19:30:35.287Z,8.97
2023-04-24T19:33:02.487Z,10.03
2023-04-24T19:35:29.748Z,9.77
2023-04-24T19:37:56.899Z,8.83
2023-04-24T19:40:24.017Z,11.23
2023-04-24T19:42:51.156Z,10.80
2023-04-24T19:45:18.297Z,9.80
2023-04-24T19:47:46.593Z,8.50
2023-04-24T19:50:15.065Z,8.33
2023-04-24T19:52:42.407Z,8.60
2023-04-24T19:55:09.978Z,9.70
2023-04-24T19:57:37.154Z,9.40
2023-04-24T20:00:04.688Z,8.53
2023-04-24T20:02:32.023Z,6.80
2023-04-24T20:04:59.330Z,8.10
2023-04-24T20:07:26.533Z,7.50
2023-04-24T20:09:53.631Z,8.57
2023-04-24T20:12:20.840Z,10.00
2023-04-24T20:14:48.385Z,9.03
2023-04-24T20:17:15.860Z,9.00
2023-04-24T20:19:43.353Z,7.90
2023-04-24T20:22:13.080Z,7.87
2023-04-24T20:24:40.643Z,9.10
2023-04-24T20:27:07.852Z,10.13
2023-04-24T20:29:35.054Z,11.77
2023-04-24T20:32:02.268Z,10.13
2023-04-24T20:34:29.440Z,9.10
2023-04-24T20:36:57.248Z,9.10
2023-04-24T20:39:24.355Z,11.47
2023-04-24T20:41:52.157Z,8.80
2023-04-24T20:44:19.476Z,10.23
2023-04-24T20:46:46.697Z,10.70
2023-04-24T20:49:13.786Z,9.10
2023-04-24T20:51:41.427Z,9.20
2023-04-24T20:54:08.543Z,9.63
2023-04-24T20:56:35.671Z,11.20
2023-04-24T20:59:02.789Z,11.97
2023-04-24T21:01:30.422Z,10.97
2023-04-24T21:03:57.651Z,12.43
2023-04-24T21:06:24.896Z,12.87
2023-04-24T21:08:51.970Z,14.77
2023-04-24T21:11:19.086Z,14.33
2023-04-24T21:13:46.314Z,13.57
2023-04-24T21:16:13.719Z,14.20
2023-04-24T21:18:41.398Z,14.37
2023-04-24T21:21:09.421Z,13.83
2023-04-24T21:23:36.869Z,16.87
2023-04-24T21:26:04.580Z,16.63
2023-04-24T21:28:31.762Z,16.17
2023-04-24T21:30:58.993Z,16.27
2023-04-24T21:33:26.160Z,13.83
2023-04-24T21:35:53.311Z,16.23
2023-04-24T21:38:23.234Z,14.13
2023-04-24T21:40:50.904Z,13.40
2023-04-24T21:43:18.672Z,14.97
2023-04-24T21:45:45.926Z,12.13
2023-04-24T21:48:13.189Z,14.30
2023-04-24T21:50:40.448Z,12.67
2023-04-24T21:53:07.575Z,11.40
2023-04-24T21:55:34.724Z,11.80
2023-04-24T21:58:01.886Z,11.30
2023-04-24T22:00:29.032Z,12.87
2023-04-24T22:02:56.290Z,12.13
2023-04-24T22:05:23.754Z,11.43
2023-04-24T22:07:51.102Z,11.07
2023-04-24T22:10:18.271Z,14.50
2023-04-24T22:12:45.420Z,12.20
2023-04-24T22:15:12.612Z,14.33
2023-04-24T22:17:39.812Z,10.87
2023-04-24T22:20:07.456Z,13.03
2023-04-24T22:22:35.213Z,11.03
2023-04-24T22:25:02.448Z,14.80
2023-04-24T22:27:30.070Z,12.70
2023-04-24T22:29:57.265Z,15.60
2023-04-24T22:32:24.420Z,13.20
2023-04-24T22:34:51.545Z,14.50
2023-04-24T22:37:18.709Z,13.23
2023-04-24T22:39:45.889Z,12.80
2023-04-24T22:42:13.023Z,12.87
2023-04-24T22:44:40.231Z,14.87
2023-04-24T22:47:08.522Z,15.77
2023-04-24T22:49:36.119Z,12.93
2023-04-24T22:52:05.210Z,16.07
2023-04-24T22:54:35.901Z,15.73
2023-04-24T22:57:04.005Z,15.80
2023-04-24T22:59:31.291Z,13.37
2023-04-24T23:01:59.376Z,15.10
2023-04-24T23:04:26.675Z,13.70
2023-04-24T23:06:54.161Z,13.00
2023-04-24T23:09:21.574Z,14.00
2023-04-24T23:11:48.748Z,14.57
2023-04-24T23:14:16.839Z,13.87
2023-04-24T23:16:45.325Z,15.37
2023-04-24T23:19:12.560Z,13.13
2023-04-24T23:21:39.754Z,16.00
2023-04-24T23:24:07.045Z,12.77
2023-04-24T23:26:34.180Z,13.83
2023-04-24T23:29:01.379Z,12.03
2023-04-24T23:31:28.534Z,13.00
2023-04-24T23:33:56.864Z,11.73
2023-04-24T23:36:23.981Z,12.67
2023-04-24T23:38:51.098Z,12.20
2023-04-24T23:41:18.588Z,11.87
2023-04-24T23:43:45.741Z,15.03
2023-04-24T23:46:13.392Z,12.87
2023-04-24T23:48:40.601Z,12.33
2023-04-24T23:51:07.751Z,14.17
2023-04-24T23:53:34.864Z,12.60
2023-04-24T23:56:02.038Z,12.97
2023-04-24T23:58:29.157Z,12.63
